createdAt,value
2017-05-29T00:02:02.174Z,18.40
2017-05-29T00:04:30.383Z,18.40
2017-05-29T00:06:58.603Z,18.40
2017-05-29T00:09:26.820Z,18.30
2017-05-29T00:11:55.039Z,18.20
2017-05-29T00:14:23.255Z,18.20
2017-05-29T00:16:51.483Z,18.10
2017-05-29T00:19:19.704Z,18.20
2017-05-29T00:21:47.927Z,18.30
2017-05-29T00:24:16.159Z,18.30
2017-05-29T00:26:44.373Z,18.40
2017-05-29T00:29:12.600Z,18.30
2017-05-29T00:31:40.846Z,18.40
2017-05-29T00:34:09.058Z,18.30
2017-05-29T00:36:37.272Z,18.20
2017-05-29T00:39:05.494Z,18.10
2017-05-29T00:41:33.711Z,18.10
2017-05-29T00:44:01.943Z,18.10
2017-05-29T00:46:30.159Z,18.30
2017-05-29T00:48:58.391Z,18.10
2017-05-29T00:51:26.611Z,18.00
2017-05-29T00:53:54.831Z,17.90
2017-05-29T00:56:23.040Z,18.00
2017-05-29T00:58:51.260Z,18.20
2017-05-29T01:01:19.487Z,18.30
2017-05-29T01:03:47.715Z,18.30
2017-05-29T01:06:15.928Z,18.20
2017-05-29T01:08:44.159Z,18.30
2017-05-29T01:11:12.375Z,18.30
2017-05-29T01:13:40.593Z,18.40
2017-05-29T01:16:08.816Z,18.40
2017-05-29T01:18:37.031Z,18.60
2017-05-29T01:21:05.255Z,18.60
2017-05-29T01:23:33.467Z,18.70
2017-05-29T01:26:01.701Z,18.80
2017-05-29T01:28:29.913Z,18.60
2017-05-29T01:30:58.127Z,18.60
2017-05-29T01:33:26.344Z,18.80
2017-05-29T01:35:54.570Z,18.80
2017-05-29T01:38:22.787Z,18.90
2017-05-29T01:40:51.003Z,18.90
2017-05-29T01:43:19.224Z,18.80
2017-05-29T01:45:47.439Z,18.90
2017-05-29T01:48:15.671Z,18.90
2017-05-29T01:50:43.887Z,18.80
2017-05-29T01:53:12.110Z,18.80
2017-05-29T01:55:40.323Z,18.90
2017-05-29T01:58:08.547Z,18.90
2017-05-29T02:00:36.767Z,18.80
2017-05-29T02:03:04.994Z,18.70
2017-05-29T02:05:33.203Z,18.70
2017-05-29T02:08:01.423Z,18.70
2017-05-29T02:10:29.639Z,18.70
2017-05-29T02:12:57.867Z,18.80
2017-05-29T02:15:26.087Z,18.80
2017-05-29T02:17:54.308Z,18.90
2017-05-29T02:20:22.535Z,18.80
2017-05-29T02:22:50.747Z,18.60
2017-05-29T02:25:18.967Z,18.60
2017-05-29T02:27:47.188Z,18.70
2017-05-29T02:30:15.413Z,18.70
2017-05-29T02:32:43.631Z,18.70
2017-05-29T02:35:11.866Z,18.60
2017-05-29T02:37:40.075Z,18.70
2017-05-29T02:40:08.301Z,18.70
2017-05-29T02:42:36.523Z,18.70
2017-05-29T02:45:04.740Z,18.60
2017-05-29T02:47:32.951Z,18.60
2017-05-29T02:50:01.191Z,18.40
2017-05-29T02:52:29.408Z,18.30
2017-05-29T02:54:57.619Z,18.30
2017-05-29T02:57:25.852Z,18.40
2017-05-29T02:59:54.068Z,18.30
2017-05-29T03:02:22.300Z,18.30
2017-05-29T03:04:50.514Z,18.30
2017-05-29T03:07:18.769Z,18.30
2017-05-29T03:09:46.983Z,18.30
2017-05-29T03:12:15.221Z,18.40
2017-05-29T03:14:43.431Z,18.40
2017-05-29T03:17:11.663Z,18.20
2017-05-29T03:19:39.870Z,18.20
2017-05-29T03:22:08.107Z,18.20
2017-05-29T03:24:36.321Z,18.20
2017-05-29T03:27:04.540Z,18.20
2017-05-29T03:29:32.751Z,18.10
2017-05-29T03:32:00.967Z,18.20
2017-05-29T03:34:29.188Z,18.20
2017-05-29T03:36:57.399Z,18.20
2017-05-29T03:39:25.622Z,18.10
2017-05-29T03:41:53.839Z,18.10
2017-05-29T03:44:22.059Z,18.10
2017-05-29T03:46:50.271Z,18.10
2017-05-29T03:49:18.523Z,18.10
2017-05-29T03:51:46.735Z,18.10
2017-05-29T03:54:14.968Z,18.20
2017-05-29T03:56:43.184Z,18.30
2017-05-29T03:59:11.418Z,18.30
2017-05-29T04:01:39.631Z,18.30
2017-05-29T04:04:07.853Z,18.30
2017-05-29T04:06:36.072Z,18.40
2017-05-29T04:09:04.330Z,18.50
2017-05-29T04:11:32.555Z,18.60
2017-05-29T04:14:00.772Z,18.70
2017-05-29T04:16:28.991Z,18.70
2017-05-29T04:18:57.215Z,18.80
2017-05-29T04:21:25.435Z,18.90
2017-05-29T04:23:53.652Z,19.00
2017-05-29T04:26:21.867Z,19.20
2017-05-29T04:28:50.090Z,19.20
2017-05-29T04:31:18.308Z,19.30
2017-05-29T04:33:46.519Z,19.30
2017-05-29T04:36:14.771Z,19.30
2017-05-29T04:38:42.992Z,19.40
2017-05-29T04:41:11.204Z,19.50
2017-05-29T04:43:39.429Z,19.50
2017-05-29T04:46:07.642Z,19.60
2017-05-29T04:48:35.868Z,19.70
2017-05-29T04:51:04.082Z,19.80
2017-05-29T04:53:32.316Z,19.80
2017-05-29T04:56:00.534Z,19.80
2017-05-29T04:58:28.767Z,20.00
2017-05-29T05:00:56.984Z,20.00
2017-05-29T05:03:25.198Z,20.10
2017-05-29T05:05:53.432Z,20.30
2017-05-29T05:08:21.680Z,20.20
2017-05-29T05:10:49.895Z,20.10
2017-05-29T05:13:18.108Z,20.30
2017-05-29T05:15:46.331Z,20.10
2017-05-29T05:18:14.543Z,20.10
2017-05-29T05:20:42.762Z,20.00
2017-05-29T05:23:10.987Z,20.10
2017-05-29T05:25:39.210Z,20.20
2017-05-29T05:28:07.428Z,20.30
2017-05-29T05:30:35.647Z,20.60
2017-05-29T05:33:03.865Z,20.80
2017-05-29T05:35:32.091Z,21.10
2017-05-29T05:38:00.299Z,21.40
2017-05-29T05:40:27.986Z,21.40
2017-05-29T05:42:56.221Z,22.90
2017-05-29T05:45:24.443Z,23.80
2017-05-29T05:47:52.664Z,24.70
2017-05-29T05:50:20.883Z,25.30
2017-05-29T05:52:49.103Z,26.20
2017-05-29T05:55:17.315Z,26.80
2017-05-29T05:57:45.539Z,27.40
2017-05-29T06:00:13.760Z,27.90
2017-05-29T06:02:41.978Z,28.50
2017-05-29T06:05:10.217Z,29.20
2017-05-29T06:07:38.436Z,29.70
2017-05-29T06:10:06.656Z,30.20
2017-05-29T06:12:34.880Z,30.00
2017-05-29T06:15:03.101Z,30.40
2017-05-29T06:17:31.323Z,30.90
2017-05-29T06:19:59.539Z,31.50
2017-05-29T06:22:27.768Z,31.90
2017-05-29T06:24:55.976Z,32.00
2017-05-29T06:27:24.215Z,31.40
2017-05-29T06:29:52.454Z,32.10
2017-05-29T06:32:21.135Z,32.20
2017-05-29T06:34:49.395Z,32.50
2017-05-29T06:37:17.611Z,32.90
2017-05-29T06:39:45.919Z,33.10
2017-05-29T06:42:14.144Z,33.40
2017-05-29T06:44:42.370Z,32.80
2017-05-29T06:47:10.590Z,33.20
2017-05-29T06:49:38.808Z,33.40
2017-05-29T06:52:07.705Z,32.60
2017-05-29T06:54:35.987Z,33.70
2017-05-29T06:57:04.208Z,34.10
2017-05-29T06:59:32.440Z,34.00
2017-05-29T07:02:00.651Z,34.50
2017-05-29T07:04:28.901Z,34.40
2017-05-29T07:06:57.307Z,34.40
2017-05-29T07:09:25.584Z,34.20
2017-05-29T07:11:53.804Z,34.30
2017-05-29T07:14:22.027Z,34.60
2017-05-29T07:16:50.255Z,34.90
2017-05-29T07:19:18.488Z,35.20
2017-05-29T07:21:46.709Z,35.10
2017-05-29T07:24:14.927Z,34.70
2017-05-29T07:26:43.147Z,35.00
2017-05-29T07:29:11.365Z,35.30
2017-05-29T07:31:39.584Z,35.70
2017-05-29T07:34:07.799Z,35.10
2017-05-29T07:36:36.019Z,34.80
2017-05-29T07:39:04.237Z,34.40
2017-05-29T07:41:32.495Z,34.90
2017-05-29T07:44:00.719Z,35.60
2017-05-29T07:46:28.973Z,36.20
2017-05-29T07:48:57.204Z,36.20
2017-05-29T07:51:25.422Z,34.90
2017-05-29T07:53:53.652Z,35.00
2017-05-29T07:56:21.861Z,35.70
2017-05-29T07:58:50.087Z,36.30
2017-05-29T08:01:18.303Z,36.50
2017-05-29T08:03:46.531Z,36.80
2017-05-29T08:06:14.748Z,36.80
2017-05-29T08:08:42.978Z,35.20
2017-05-29T08:11:11.196Z,35.00
2017-05-29T08:13:39.436Z,32.70
2017-05-29T08:16:07.706Z,32.70
2017-05-29T08:18:35.955Z,33.50
2017-05-29T08:21:04.163Z,33.00
2017-05-29T08:23:32.385Z,31.40
2017-05-29T08:26:00.606Z,30.20
2017-05-29T08:28:28.823Z,30.80
2017-05-29T08:30:57.049Z,29.50
2017-05-29T08:33:25.275Z,29.30
2017-05-29T08:35:53.504Z,30.70
2017-05-29T08:38:21.718Z,32.40
2017-05-29T08:40:49.943Z,33.50
2017-05-29T08:43:18.163Z,32.70
2017-05-29T08:45:46.516Z,34.10
2017-05-29T08:48:14.731Z,35.30
2017-05-29T08:50:42.959Z,33.60
2017-05-29T08:53:11.178Z,34.80
2017-05-29T08:55:39.424Z,33.40
2017-05-29T08:58:07.646Z,32.70
2017-05-29T09:00:35.859Z,33.40
2017-05-29T09:03:04.099Z,35.00
2017-05-29T09:05:32.322Z,36.40
2017-05-29T09:08:00.546Z,35.90
2017-05-29T09:10:28.766Z,36.90
2017-05-29T09:12:57.012Z,38.00
2017-05-29T09:15:25.231Z,35.40
2017-05-29T09:17:53.459Z,35.20
2017-05-29T09:20:21.670Z,35.90
2017-05-29T09:22:49.895Z,35.20
2017-05-29T09:25:18.116Z,34.70
2017-05-29T09:27:46.343Z,33.10
2017-05-29T09:30:14.555Z,32.90
2017-05-29T09:32:42.803Z,33.90
2017-05-29T09:35:11.023Z,34.40
2017-05-29T09:37:39.239Z,35.40
2017-05-29T09:40:07.463Z,36.00
2017-05-29T09:42:35.687Z,36.80
2017-05-29T09:45:03.911Z,37.70
2017-05-29T09:47:32.135Z,36.90
2017-05-29T09:50:00.359Z,36.90
2017-05-29T09:52:28.578Z,37.10
2017-05-29T09:54:56.797Z,37.40
2017-05-29T09:57:25.011Z,37.10
2017-05-29T09:59:53.232Z,35.40
2017-05-29T10:02:21.448Z,36.00
2017-05-29T10:04:49.673Z,35.00
2017-05-29T10:07:17.888Z,36.60
2017-05-29T10:09:46.131Z,37.70
2017-05-29T10:12:14.343Z,37.50
2017-05-29T10:14:42.556Z,38.20
2017-05-29T10:17:10.779Z,38.90
2017-05-29T10:19:39.003Z,39.00
2017-05-29T10:22:07.232Z,38.10
2017-05-29T10:24:35.447Z,38.00
2017-05-29T10:27:03.677Z,34.50
2017-05-29T10:29:31.903Z,33.10
2017-05-29T10:32:00.117Z,34.40
2017-05-29T10:34:28.335Z,35.10
2017-05-29T10:36:56.555Z,36.40
2017-05-29T10:39:24.772Z,35.60
2017-05-29T10:41:53.008Z,36.50
2017-05-29T10:44:21.219Z,35.40
2017-05-29T10:46:49.439Z,35.70
2017-05-29T10:49:17.663Z,37.10
2017-05-29T10:51:45.878Z,35.60
2017-05-29T10:54:14.099Z,36.30
2017-05-29T10:56:42.316Z,36.20
2017-05-29T10:59:10.546Z,36.30
2017-05-29T11:01:38.762Z,36.70
2017-05-29T11:04:06.982Z,36.50
2017-05-29T11:06:35.211Z,37.70
2017-05-29T11:09:03.436Z,37.60
2017-05-29T11:11:31.659Z,37.00
2017-05-29T11:13:59.889Z,34.20
2017-05-29T11:16:28.107Z,34.50
2017-05-29T11:18:56.314Z,34.70
2017-05-29T11:21:24.551Z,36.20
2017-05-29T11:23:52.767Z,37.20
2017-05-29T11:26:20.997Z,37.60
2017-05-29T11:28:49.207Z,37.90
2017-05-29T11:31:17.422Z,37.30
2017-05-29T11:33:45.640Z,38.10
2017-05-29T11:36:13.871Z,38.20
2017-05-29T11:38:42.087Z,38.60
2017-05-29T11:41:10.344Z,37.60
2017-05-29T11:43:38.556Z,36.60
2017-05-29T11:46:06.779Z,35.90
2017-05-29T11:48:35.023Z,37.10
2017-05-29T11:51:03.248Z,37.40
2017-05-29T11:53:31.477Z,38.40
2017-05-29T11:55:59.719Z,37.10
2017-05-29T11:58:27.942Z,37.20
2017-05-29T12:00:56.159Z,35.90
2017-05-29T12:03:24.383Z,34.20
2017-05-29T12:05:52.606Z,34.10
2017-05-29T12:08:20.824Z,33.50
2017-05-29T12:10:49.038Z,33.70
2017-05-29T12:13:17.259Z,35.00
2017-05-29T12:15:45.479Z,34.60
2017-05-29T12:18:13.698Z,33.90
2017-05-29T12:20:41.919Z,33.70
2017-05-29T12:23:10.133Z,33.40
2017-05-29T12:25:38.815Z,33.90
2017-05-29T12:28:07.049Z,34.60
2017-05-29T12:30:35.267Z,34.40
2017-05-29T12:33:03.478Z,34.50
2017-05-29T12:35:31.703Z,35.30
2017-05-29T12:37:59.918Z,36.10
2017-05-29T12:40:28.144Z,35.10
2017-05-29T12:42:56.359Z,33.90
2017-05-29T12:45:24.594Z,33.30
2017-05-29T12:47:52.820Z,33.40
2017-05-29T12:50:21.051Z,32.10
2017-05-29T12:52:49.268Z,32.40
2017-05-29T12:55:17.489Z,32.00
2017-05-29T12:57:45.711Z,32.50
2017-05-29T13:00:13.936Z,32.60
2017-05-29T13:02:42.155Z,33.00
2017-05-29T13:05:10.377Z,32.20
2017-05-29T13:07:38.604Z,31.70
2017-05-29T13:10:06.829Z,32.10
2017-05-29T13:12:35.054Z,31.70
2017-05-29T13:15:03.275Z,32.30
2017-05-29T13:17:31.501Z,32.70
2017-05-29T13:19:59.716Z,32.50
2017-05-29T13:22:27.937Z,32.80
2017-05-29T13:24:56.151Z,32.90
2017-05-29T13:27:24.406Z,33.10
2017-05-29T13:29:52.623Z,33.20
2017-05-29T13:32:20.841Z,33.70
2017-05-29T13:34:49.064Z,34.00
2017-05-29T13:37:17.279Z,34.20
2017-05-29T13:39:45.506Z,34.20
2017-05-29T13:42:13.721Z,34.20
2017-05-29T13:44:41.955Z,33.40
2017-05-29T13:47:10.168Z,33.70
2017-05-29T13:49:38.391Z,33.80
2017-05-29T13:52:06.606Z,33.60
2017-05-29T13:54:34.834Z,33.30
2017-05-29T13:57:03.117Z,33.60
2017-05-29T13:59:31.353Z,33.70
2017-05-29T14:01:59.588Z,33.70
2017-05-29T14:04:27.855Z,33.70
2017-05-29T14:06:56.660Z,33.70
2017-05-29T14:09:24.880Z,33.00
2017-05-29T14:11:53.114Z,31.80
2017-05-29T14:14:21.324Z,31.70
2017-05-29T14:16:49.544Z,32.10
2017-05-29T14:19:17.755Z,32.20
2017-05-29T14:21:45.975Z,32.20
2017-05-29T14:24:14.193Z,31.90
2017-05-29T14:26:42.542Z,31.70
2017-05-29T14:29:10.751Z,31.40
2017-05-29T14:31:38.985Z,31.10
2017-05-29T14:34:07.205Z,31.10
2017-05-29T14:36:35.434Z,31.20
2017-05-29T14:39:03.647Z,31.30
2017-05-29T14:41:31.870Z,31.50
2017-05-29T14:44:00.088Z,31.50
2017-05-29T14:46:28.306Z,31.70
2017-05-29T14:48:56.531Z,31.80
2017-05-29T14:51:24.744Z,31.70
2017-05-29T14:53:52.971Z,31.50
2017-05-29T14:56:21.188Z,31.20
2017-05-29T14:58:49.407Z,31.60
2017-05-29T15:01:17.628Z,31.60
2017-05-29T15:03:45.856Z,31.70
2017-05-29T15:06:14.074Z,31.60
2017-05-29T15:08:42.296Z,31.30
2017-05-29T15:11:10.512Z,31.00
2017-05-29T15:13:38.729Z,31.00
2017-05-29T15:16:06.953Z,30.90
2017-05-29T15:18:35.179Z,31.00
2017-05-29T15:21:03.407Z,30.70
2017-05-29T15:23:31.631Z,30.50
2017-05-29T15:25:59.859Z,30.40
2017-05-29T15:28:28.084Z,30.30
2017-05-29T15:30:56.307Z,30.10
2017-05-29T15:33:24.524Z,29.90
2017-05-29T15:35:52.749Z,29.80
2017-05-29T15:38:20.963Z,29.80
2017-05-29T15:40:49.179Z,29.80
2017-05-29T15:43:17.400Z,29.90
2017-05-29T15:45:45.615Z,29.80
2017-05-29T15:48:13.840Z,29.70
2017-05-29T15:50:42.087Z,29.70
2017-05-29T15:53:10.317Z,29.60
2017-05-29T15:55:38.532Z,29.60
2017-05-29T15:58:06.755Z,29.00
2017-05-29T16:00:34.975Z,28.70
2017-05-29T16:03:03.199Z,28.90
2017-05-29T16:05:31.418Z,29.10
2017-05-29T16:07:59.675Z,29.30
2017-05-29T16:10:27.887Z,28.70
2017-05-29T16:12:56.104Z,28.40
2017-05-29T16:15:24.326Z,28.40
2017-05-29T16:17:52.543Z,28.50
2017-05-29T16:20:20.772Z,28.60
2017-05-29T16:22:48.995Z,28.40
2017-05-29T16:25:17.215Z,28.20
2017-05-29T16:27:45.428Z,28.10
2017-05-29T16:30:13.655Z,28.20
2017-05-29T16:32:41.883Z,28.50
2017-05-29T16:35:10.104Z,28.60
2017-05-29T16:37:38.331Z,28.50
2017-05-29T16:40:06.555Z,28.50
2017-05-29T16:42:34.819Z,28.00
2017-05-29T16:45:03.035Z,27.90
2017-05-29T16:47:31.257Z,28.00
2017-05-29T16:49:59.508Z,28.20
2017-05-29T16:52:27.724Z,28.30
2017-05-29T16:54:55.945Z,28.40
2017-05-29T16:57:24.171Z,28.30
2017-05-29T16:59:52.385Z,28.20
2017-05-29T17:02:20.623Z,28.10
2017-05-29T17:04:48.832Z,27.90
2017-05-29T17:07:17.056Z,27.70
2017-05-29T17:09:45.269Z,27.80
2017-05-29T17:12:13.495Z,27.70
2017-05-29T17:14:41.723Z,27.70
2017-05-29T17:17:09.954Z,27.70
2017-05-29T17:19:38.175Z,27.50
2017-05-29T17:22:06.395Z,27.40
2017-05-29T17:24:34.632Z,27.30
2017-05-29T17:27:02.899Z,27.40
2017-05-29T17:29:31.120Z,27.50
2017-05-29T17:31:59.348Z,27.30
2017-05-29T17:34:27.575Z,27.30
2017-05-29T17:36:55.787Z,27.40
2017-05-29T17:39:24.028Z,27.40
2017-05-29T17:41:52.250Z,27.40
2017-05-29T17:44:20.508Z,27.20
2017-05-29T17:46:48.727Z,27.30
2017-05-29T17:49:16.947Z,27.10
2017-05-29T17:51:45.159Z,27.10
2017-05-29T17:54:13.437Z,27.10
2017-05-29T17:56:41.660Z,26.90
2017-05-29T17:59:09.885Z,26.60
2017-05-29T18:01:38.104Z,26.60
2017-05-29T18:04:10.085Z,26.60
2017-05-29T18:06:38.304Z,26.50
2017-05-29T18:09:06.527Z,26.60
2017-05-29T18:11:34.748Z,26.50
2017-05-29T18:14:02.995Z,26.30
2017-05-29T18:16:31.227Z,26.30
2017-05-29T18:18:59.447Z,26.40
2017-05-29T18:21:27.677Z,26.50
2017-05-29T18:23:55.891Z,26.60
2017-05-29T18:26:24.115Z,26.60
2017-05-29T18:28:52.350Z,26.60
2017-05-29T18:31:20.574Z,26.70
2017-05-29T18:33:48.783Z,26.60
2017-05-29T18:36:17.003Z,26.40
2017-05-29T18:38:45.223Z,26.20
2017-05-29T18:41:13.448Z,26.10
2017-05-29T18:43:41.680Z,26.20
2017-05-29T18:46:09.900Z,26.20
2017-05-29T18:48:38.115Z,25.90
2017-05-29T18:51:06.375Z,25.90
2017-05-29T18:53:34.587Z,25.80
2017-05-29T18:56:02.807Z,25.40
2017-05-29T18:58:31.035Z,25.40
2017-05-29T19:00:59.247Z,25.40
2017-05-29T19:03:27.471Z,25.40
2017-05-29T19:05:55.688Z,25.40
2017-05-29T19:08:23.916Z,25.50
2017-05-29T19:10:52.132Z,25.60
2017-05-29T19:13:20.372Z,25.50
2017-05-29T19:15:48.587Z,25.40
2017-05-29T19:18:16.831Z,25.40
2017-05-29T19:20:45.043Z,25.20
2017-05-29T19:23:13.283Z,25.20
2017-05-29T19:25:41.494Z,24.50
2017-05-29T19:28:09.739Z,24.00
2017-05-29T19:30:37.952Z,23.90
2017-05-29T19:33:06.181Z,24.10
2017-05-29T19:35:34.396Z,24.20
2017-05-29T19:38:02.610Z,24.10
2017-05-29T19:40:30.830Z,24.10
2017-05-29T19:42:59.051Z,24.10
2017-05-29T19:45:27.280Z,23.90
2017-05-29T19:47:55.492Z,23.60
2017-05-29T19:50:23.719Z,23.50
2017-05-29T19:52:51.938Z,23.60
2017-05-29T19:55:20.168Z,23.50
2017-05-29T19:57:48.409Z,23.40
2017-05-29T20:00:16.639Z,23.30
2017-05-29T20:02:44.867Z,23.40
2017-05-29T20:05:13.087Z,23.50
2017-05-29T20:07:41.303Z,23.30
2017-05-29T20:10:09.554Z,23.40
2017-05-29T20:12:37.790Z,23.50
2017-05-29T20:15:06.008Z,23.20
2017-05-29T20:17:34.228Z,23.10
2017-05-29T20:20:02.468Z,22.80
2017-05-29T20:22:30.696Z,22.60
2017-05-29T20:24:58.952Z,22.70
2017-05-29T20:27:27.172Z,22.80
2017-05-29T20:29:55.388Z,22.70
2017-05-29T20:32:23.614Z,22.70
2017-05-29T20:34:51.891Z,22.70
2017-05-29T20:37:20.113Z,22.70
2017-05-29T20:39:48.327Z,22.70
2017-05-29T20:42:16.564Z,22.30
2017-05-29T20:44:44.780Z,21.90
2017-05-29T20:47:13.015Z,21.80
2017-05-29T20:49:41.226Z,21.60
2017-05-29T20:52:09.448Z,21.40
2017-05-29T20:54:37.668Z,21.40
2017-05-29T20:57:05.883Z,21.40
2017-05-29T20:59:34.104Z,21.30
2017-05-29T21:02:02.323Z,21.30
2017-05-29T21:04:30.551Z,21.50
2017-05-29T21:06:58.767Z,21.50
2017-05-29T21:09:26.999Z,21.30
2017-05-29T21:11:55.211Z,21.20
2017-05-29T21:14:23.435Z,21.10
2017-05-29T21:16:51.652Z,21.00
2017-05-29T21:19:20.792Z,21.00
2017-05-29T21:21:49.306Z,21.10
2017-05-29T21:24:17.560Z,20.90
2017-05-29T21:26:45.784Z,21.00
2017-05-29T21:29:14.009Z,21.10
2017-05-29T21:31:42.238Z,21.30
2017-05-29T21:34:10.447Z,21.40
2017-05-29T21:36:38.687Z,21.40
2017-05-29T21:39:06.899Z,21.40
2017-05-29T21:41:35.127Z,21.30
2017-05-29T21:44:03.395Z,21.30
2017-05-29T21:46:31.635Z,21.30
2017-05-29T21:49:00.656Z,21.40
2017-05-29T21:51:28.879Z,21.20
2017-05-29T21:53:57.116Z,20.90
2017-05-29T21:56:25.344Z,21.10
2017-05-29T21:58:53.563Z,21.30
2017-05-29T22:01:21.824Z,21.40
2017-05-29T22:03:50.036Z,20.70
2017-05-29T22:06:18.251Z,20.70
2017-05-29T22:08:46.475Z,20.90
2017-05-29T22:11:14.695Z,21.00
2017-05-29T22:13:42.911Z,21.10
2017-05-29T22:16:11.132Z,21.10
2017-05-29T22:18:39.780Z,21.10
2017-05-29T22:21:07.995Z,21.10
2017-05-29T22:23:36.216Z,21.20
2017-05-29T22:26:04.427Z,21.30
2017-05-29T22:28:32.654Z,21.10
2017-05-29T22:31:00.864Z,21.20
2017-05-29T22:33:29.090Z,21.10
2017-05-29T22:35:57.303Z,21.20
2017-05-29T22:38:25.527Z,21.40
2017-05-29T22:40:53.747Z,21.20
2017-05-29T22:43:21.978Z,20.80
2017-05-29T22:45:50.211Z,20.70
2017-05-29T22:48:18.427Z,20.80
2017-05-29T22:50:46.659Z,20.80
2017-05-29T22:53:14.868Z,20.90
2017-05-29T22:55:43.091Z,21.00
2017-05-29T22:58:11.324Z,21.00
2017-05-29T23:00:39.556Z,20.90
2017-05-29T23:03:07.767Z,20.80
2017-05-29T23:05:35.989Z,20.70
2017-05-29T23:08:04.205Z,20.80
2017-05-29T23:10:32.428Z,20.80
2017-05-29T23:13:00.640Z,20.60
2017-05-29T23:15:28.875Z,20.40
2017-05-29T23:17:57.086Z,20.50
2017-05-29T23:20:25.312Z,20.60
2017-05-29T23:22:53.523Z,20.60
2017-05-29T23:25:21.753Z,20.50
2017-05-29T23:27:49.972Z,20.30
2017-05-29T23:30:18.196Z,20.40
2017-05-29T23:32:46.420Z,20.60
2017-05-29T23:35:14.629Z,20.70
2017-05-29T23:37:42.851Z,20.80
2017-05-29T23:40:11.064Z,20.70
2017-05-29T23:42:39.291Z,20.70
2017-05-29T23:45:07.511Z,20.80
2017-05-29T23:47:35.743Z,20.70
2017-05-29T23:50:04.001Z,20.60
2017-05-29T23:52:32.227Z,20.80
2017-05-29T23:55:00.451Z,20.50
2017-05-29T23:57:28.676Z,20.40
2017-05-29T23:59:56.896Z,20.30
